Time;durP1;ratioP1;P1;durP2;ratioP2;P2;SDS_P1;SDS_P2;PMS_P1;PMS_P2;Temp;Humidity;BMP_temperature;BMP_pressure;BME280_temperature;BME280_humidity;BME280_pressure;Samples;Min_cycle;Max_cycle;Signal;HPM_P1;HPM_P2
2022/12/11 00:01:11;;;;;;;117.88;18.25;;;-0.10;99.90;;;;;;5115884;27;20126;-81
2022/12/11 00:03:37;;;;;;;92.40;17.50;;;0.00;99.90;;;;;;5134404;27;20050;-75
2022/12/11 00:06:07;;;;;;;83.10;17.45;;;0.00;99.90;;;;;;5115845;27;20043;-78
2022/12/11 00:08:33;;;;;;;79.38;17.35;;;0.00;99.90;;;;;;5115708;27;20049;-78
2022/12/11 00:10:59;;;;;;;80.55;16.15;;;0.00;99.90;;;;;;5133945;27;20101;-74
2022/12/11 00:13:25;;;;;;;93.78;17.30;;;0.00;99.90;;;;;;5134027;27;20083;-75
2022/12/11 00:15:51;;;;;;;82.07;17.02;;;0.00;99.90;;;;;;5133872;27;20051;-76
2022/12/11 00:18:16;;;;;;;114.47;20.75;;;0.00;99.90;;;;;;5115281;27;20043;-76
2022/12/11 00:20:42;;;;;;;74.57;16.25;;;0.00;99.90;;;;;;5134132;27;20076;-74
2022/12/11 00:23:09;;;;;;;96.78;18.73;;;0.00;99.90;;;;;;5115936;27;20472;-75
2022/12/11 00:25:43;;;;;;;82.88;17.05;;;-0.10;99.90;;;;;;5116402;27;20046;-76
2022/12/11 00:28:10;;;;;;;80.35;16.80;;;0.00;99.90;;;;;;5134423;27;20051;-75
2022/12/11 00:30:42;;;;;;;83.65;17.92;;;0.00;99.90;;;;;;5115384;27;20051;-75
2022/12/11 00:33:09;;;;;;;75.40;16.70;;;0.00;99.90;;;;;;5115557;27;20047;-74
2022/12/11 00:35:40;;;;;;;72.45;16.08;;;0.00;99.90;;;;;;5133842;27;20050;-74
2022/12/11 00:38:06;;;;;;;73.78;16.30;;;0.10;99.90;;;;;;5115335;27;20046;-75
2022/12/11 00:40:36;;;;;;;81.63;16.98;;;0.10;99.90;;;;;;5134340;27;20126;-75
2022/12/11 00:43:02;;;;;;;73.82;16.02;;;0.10;99.90;;;;;;5135909;27;20039;-80
2022/12/11 00:45:28;;;;;;;75.28;16.23;;;0.10;99.90;;;;;;5137007;27;20047;-75
2022/12/11 00:47:53;;;;;;;77.30;15.40;;;0.10;99.90;;;;;;5134106;27;20045;-74
2022/12/11 00:50:19;;;;;;;82.40;16.13;;;0.10;99.90;;;;;;5116636;28;20467;-76
2022/12/11 00:52:45;;;;;;;81.22;16.48;;;0.10;99.90;;;;;;5134541;28;20043;-75
2022/12/11 00:55:11;;;;;;;88.22;16.42;;;0.10;99.90;;;;;;5139824;28;20095;-77
2022/12/11 00:57:36;;;;;;;78.85;16.05;;;0.10;99.90;;;;;;5125252;28;20054;-76
2022/12/11 01:00:07;;;;;;;79.90;15.77;;;0.10;99.90;;;;;;5140077;28;20055;-76
2022/12/11 01:02:33;;;;;;;72.55;15.77;;;0.20;99.90;;;;;;5136723;28;20149;-77
2022/12/11 01:04:59;;;;;;;83.47;15.60;;;0.20;99.90;;;;;;5136302;28;20075;-76
2022/12/11 01:07:25;;;;;;;90.30;17.13;;;0.20;99.90;;;;;;5134721;28;20039;-77
2022/12/11 01:12:35;;;;;;;69.78;13.88;;;0.10;99.90;;;;;;5100217;28;20154;-75
2022/12/11 01:15:01;;;;;;;78.03;15.00;;;0.10;99.90;;;;;;5133341;28;20116;-75
2022/12/11 01:17:27;;;;;;;85.90;16.13;;;0.20;99.90;;;;;;5098988;28;20413;-75
2022/12/11 01:19:53;;;;;;;82.95;15.88;;;0.20;99.90;;;;;;5081308;28;20047;-77
2022/12/11 01:22:19;;;;;;;73.50;15.65;;;0.20;99.90;;;;;;5098098;28;20100;-76
2022/12/11 01:24:45;;;;;;;82.47;15.15;;;0.20;99.90;;;;;;5133430;28;20096;-76
2022/12/11 01:27:11;;;;;;;68.65;15.85;;;0.20;99.90;;;;;;5080962;28;20043;-76
2022/12/11 01:29:36;;;;;;;74.20;16.45;;;0.20;99.90;;;;;;5133278;28;20042;-77
2022/12/11 01:32:02;;;;;;;70.95;15.00;;;0.20;99.90;;;;;;5115015;28;20386;-77
2022/12/11 01:34:32;;;;;;;73.25;16.50;;;0.20;99.90;;;;;;5081332;28;20055;-78
2022/12/11 01:36:58;;;;;;;81.88;16.58;;;0.20;99.90;;;;;;5114507;28;20086;-78
2022/12/11 01:39:24;;;;;;;75.68;15.68;;;0.30;99.90;;;;;;5114830;28;20039;-77
2022/12/11 01:41:50;;;;;;;78.10;17.13;;;0.20;99.90;;;;;;5097916;28;20099;-77
2022/12/11 01:44:15;;;;;;;85.00;16.55;;;0.20;99.90;;;;;;5097801;28;20047;-77
2022/12/11 01:46:42;;;;;;;73.45;16.58;;;0.30;99.90;;;;;;5114571;28;20047;-78
2022/12/11 01:49:14;;;;;;;74.78;15.23;;;0.20;99.90;;;;;;5133674;28;20035;-76
2022/12/11 01:51:44;;;;;;;80.32;16.67;;;0.20;99.90;;;;;;5133909;28;20043;-80
2022/12/11 01:54:13;;;;;;;72.03;15.35;;;0.30;99.90;;;;;;5115053;28;20368;-75
2022/12/11 01:56:42;;;;;;;71.35;16.50;;;0.30;99.90;;;;;;5133104;28;20062;-82
2022/12/11 01:59:09;;;;;;;70.43;13.80;;;0.30;99.90;;;;;;5135618;27;20090;-76
2022/12/11 02:02:01;;;;;;;77.00;16.37;;;0.30;99.90;;;;;;5101682;27;20423;-76
2022/12/11 02:04:28;;;;;;;77.95;15.98;;;0.30;99.90;;;;;;5119216;27;20051;-75
2022/12/11 02:06:54;;;;;;;76.38;17.73;;;0.30;99.90;;;;;;5118075;27;20042;-77
2022/12/11 02:09:23;;;;;;;73.45;15.43;;;0.30;99.90;;;;;;5136465;27;20043;-76
2022/12/11 02:12:30;;;;;;;80.28;15.95;;;0.30;99.90;;;;;;5114504;28;20128;-75
2022/12/11 02:15:11;;;;;;;66.35;15.10;;;0.30;99.90;;;;;;5114711;28;20042;-75
2022/12/11 02:18:23;;;;;;;78.57;15.10;;;0.30;99.90;;;;;;5115100;28;20042;-75
2022/12/11 02:21:05;;;;;;;83.05;16.13;;;0.30;99.90;;;;;;5115014;28;20082;-75
2022/12/11 02:23:54;;;;;;;71.00;13.82;;;0.30;99.90;;;;;;5114817;28;20055;-75
2022/12/11 02:26:32;;;;;;;83.07;16.30;;;0.30;99.90;;;;;;5114710;28;20042;-82
2022/12/11 02:29:01;;;;;;;79.18;16.10;;;0.30;99.90;;;;;;5115577;28;20050;-76
2022/12/11 02:31:32;;;;;;;76.40;15.95;;;0.30;99.90;;;;;;5097338;28;20072;-75
2022/12/11 02:34:00;;;;;;;76.53;16.50;;;0.40;99.90;;;;;;5115784;28;20044;-75
2022/12/11 02:36:30;;;;;;;71.53;16.30;;;0.40;99.90;;;;;;5114187;28;20039;-75
2022/12/11 02:39:00;;;;;;;73.18;15.07;;;0.40;99.90;;;;;;5115665;28;20039;-77
2022/12/11 02:41:28;;;;;;;79.47;15.95;;;0.30;99.90;;;;;;5114133;28;20383;-75
2022/12/11 02:43:56;;;;;;;77.57;15.98;;;0.50;99.90;;;;;;5115857;28;20267;-80
2022/12/11 02:46:23;;;;;;;85.18;17.23;;;0.40;99.90;;;;;;5096967;28;20084;-76
2022/12/11 02:48:51;;;;;;;87.13;17.00;;;0.40;99.90;;;;;;5114340;28;20058;-76
2022/12/11 02:51:26;;;;;;;84.20;16.02;;;0.40;99.90;;;;;;5115334;28;20047;-75
2022/12/11 02:53:56;;;;;;;78.25;16.30;;;0.50;99.90;;;;;;5097404;28;20058;-75
2022/12/11 02:56:35;;;;;;;94.47;18.58;;;0.40;99.90;;;;;;5115701;28;20040;-82
2022/12/11 02:59:09;;;;;;;85.63;16.67;;;0.40;99.90;;;;;;5115400;28;20387;-81
2022/12/11 03:01:35;;;;;;;80.20;16.60;;;0.40;99.90;;;;;;5115225;28;20043;-82
2022/12/11 03:04:00;;;;;;;95.90;17.25;;;0.40;99.90;;;;;;5114895;28;20056;-81
2022/12/11 03:06:38;;;;;;;85.78;16.50;;;0.40;99.90;;;;;;5114576;28;20043;-79
2022/12/11 03:09:05;;;;;;;87.22;16.65;;;0.40;99.90;;;;;;5114508;28;20039;-79
2022/12/11 03:11:32;;;;;;;89.78;16.10;;;0.50;99.90;;;;;;5112696;28;20105;-80
2022/12/11 03:14:01;;;;;;;87.30;17.92;;;0.40;99.90;;;;;;5115066;28;20063;-80
2022/12/11 03:16:40;;;;;;;86.75;17.90;;;0.40;99.90;;;;;;5115329;28;20043;-80
2022/12/11 03:19:16;;;;;;;81.40;16.38;;;0.40;99.90;;;;;;5115484;28;20228;-80
2022/12/11 03:21:53;;;;;;;91.10;18.20;;;0.40;99.90;;;;;;5114721;28;20096;-83
2022/12/11 03:24:25;;;;;;;105.28;18.60;;;0.40;99.90;;;;;;5116998;28;20097;-81
2022/12/11 03:26:59;;;;;;;100.07;17.60;;;0.40;99.90;;;;;;5118326;28;20055;-79
2022/12/11 03:29:30;;;;;;;101.05;17.15;;;0.40;99.90;;;;;;5099114;28;20051;-80
2022/12/11 03:31:59;;;;;;;86.75;17.48;;;0.40;99.90;;;;;;5116473;28;20042;-80
2022/12/11 03:34:37;;;;;;;107.28;18.70;;;0.40;99.90;;;;;;5115035;28;20043;-80
2022/12/11 03:37:05;;;;;;;91.70;17.42;;;0.40;99.90;;;;;;5113521;28;20051;-80
2022/12/11 03:39:35;;;;;;;102.53;19.55;;;0.40;99.90;;;;;;5112783;28;20150;-80
2022/12/11 03:42:04;;;;;;;103.10;19.80;;;0.50;99.90;;;;;;5096594;28;20062;-80
2022/12/11 03:44:32;;;;;;;97.78;18.80;;;0.50;99.90;;;;;;5096080;28;20047;-80
2022/12/11 03:47:00;;;;;;;91.88;18.52;;;0.50;99.90;;;;;;5114298;28;20592;-80
2022/12/11 03:49:32;;;;;;;92.82;19.35;;;0.50;99.90;;;;;;5113008;28;20095;-80
2022/12/11 03:52:00;;;;;;;89.28;18.10;;;0.50;99.90;;;;;;5113033;28;20514;-80
2022/12/11 03:54:27;;;;;;;91.88;18.25;;;0.50;99.90;;;;;;5114063;28;20089;-81
2022/12/11 03:56:55;;;;;;;95.13;18.55;;;0.50;99.90;;;;;;5112568;28;20553;-80
2022/12/11 03:59:21;;;;;;;87.75;17.38;;;0.60;99.90;;;;;;5112732;28;20050;-80
2022/12/11 04:01:47;;;;;;;88.07;17.10;;;0.60;99.90;;;;;;5113670;28;20479;-80
2022/12/11 04:04:13;;;;;;;94.22;17.17;;;0.60;99.90;;;;;;5113981;28;20096;-81
2022/12/11 04:06:39;;;;;;;85.88;17.80;;;0.60;99.90;;;;;;5112090;28;20047;-83
2022/12/11 04:09:04;;;;;;;91.20;17.80;;;0.60;99.90;;;;;;5113821;28;20086;-80
2022/12/11 04:11:33;;;;;;;89.18;17.42;;;0.60;99.90;;;;;;5112596;28;20445;-79
2022/12/11 04:16:53;;;;;;;85.07;17.10;;;0.60;99.90;;;;;;5117295;28;20043;-80
2022/12/11 04:24:49;;;;;;;86.88;16.98;;;0.50;99.90;;;;;;5121670;28;20078;-81
2022/12/11 04:30:03;;;;;;;72.35;15.43;;;0.50;99.90;;;;;;5113208;28;20051;-82
2022/12/11 04:32:29;;;;;;;81.22;15.68;;;0.50;99.90;;;;;;5113467;28;20120;-79
2022/12/11 04:34:55;;;;;;;86.63;17.13;;;0.60;99.90;;;;;;5095966;28;20364;-82
2022/12/11 04:37:20;;;;;;;80.97;15.60;;;0.60;99.90;;;;;;5112670;28;20054;-81
2022/12/11 04:39:46;;;;;;;94.32;18.27;;;0.60;99.90;;;;;;5112532;28;20059;-79
2022/12/11 04:42:12;;;;;;;85.45;16.88;;;0.60;99.90;;;;;;5113404;28;20046;-78
2022/12/11 04:44:37;;;;;;;91.05;17.13;;;0.60;99.90;;;;;;5113155;28;20047;-79
2022/12/11 04:47:03;;;;;;;84.78;16.42;;;0.60;99.90;;;;;;5113872;28;20055;-82
2022/12/11 04:49:29;;;;;;;72.25;14.73;;;0.60;99.90;;;;;;5095625;28;20333;-79
2022/12/11 04:51:55;;;;;;;82.07;15.30;;;0.60;99.90;;;;;;5095994;28;20047;-81
2022/12/11 04:54:20;;;;;;;76.32;14.70;;;0.60;99.90;;;;;;5113126;28;20347;-83
2022/12/11 04:56:46;;;;;;;76.65;15.60;;;0.60;99.90;;;;;;5095618;28;20134;-81
2022/12/11 04:59:12;;;;;;;80.32;15.10;;;0.60;99.90;;;;;;5113361;28;20418;-80
2022/12/11 05:01:37;;;;;;;85.22;16.15;;;0.60;99.90;;;;;;5112624;28;20126;-80
2022/12/11 05:04:03;;;;;;;73.55;15.27;;;0.60;99.90;;;;;;5095304;28;20055;-81
2022/12/11 05:06:29;;;;;;;76.65;15.27;;;0.70;99.90;;;;;;5111846;28;20403;-80
2022/12/11 05:08:55;;;;;;;77.72;16.83;;;0.60;99.90;;;;;;5094722;28;20050;-80
2022/12/11 05:11:21;;;;;;;81.88;16.38;;;0.70;99.90;;;;;;5119197;27;20491;-81
2022/12/11 05:13:47;;;;;;;81.43;17.10;;;0.70;99.90;;;;;;5115009;28;20099;-81
2022/12/11 05:16:14;;;;;;;81.97;16.95;;;0.70;99.90;;;;;;5133273;28;20162;-80
2022/12/11 05:18:41;;;;;;;71.88;15.93;;;0.70;99.90;;;;;;5133142;28;20477;-80
2022/12/11 05:21:09;;;;;;;66.97;14.05;;;0.70;99.90;;;;;;5098416;28;20051;-80
2022/12/11 05:23:35;;;;;;;75.25;16.02;;;0.70;99.90;;;;;;5115197;28;20039;-80
2022/12/11 05:26:04;;;;;;;79.60;16.60;;;0.80;99.90;;;;;;5098163;28;20111;-80
2022/12/11 05:28:33;;;;;;;76.57;17.45;;;0.80;99.90;;;;;;5133106;28;20080;-81
2022/12/11 05:31:04;;;;;;;81.78;15.27;;;0.70;99.90;;;;;;5114973;28;20036;-81
2022/12/11 05:33:30;;;;;;;70.85;16.15;;;0.70;99.90;;;;;;5135025;27;20055;-81
2022/12/11 05:35:55;;;;;;;77.82;16.25;;;0.70;99.90;;;;;;5136929;27;20191;-81
2022/12/11 05:38:21;;;;;;;74.40;15.27;;;0.70;99.90;;;;;;5118384;27;20035;-81
2022/12/11 05:41:00;;;;;;;76.22;15.30;;;0.70;99.90;;;;;;5118569;27;20078;-81
2022/12/11 05:43:28;;;;;;;74.85;14.75;;;0.70;99.90;;;;;;5118085;27;20131;-81
2022/12/11 05:45:54;;;;;;;72.45;14.82;;;0.70;99.90;;;;;;5137167;27;20043;-81
2022/12/11 05:48:20;;;;;;;72.72;15.43;;;0.70;99.90;;;;;;5118148;27;20551;-81
2022/12/11 05:50:56;;;;;;;74.70;16.35;;;0.70;99.90;;;;;;5118113;27;20050;-81
2022/12/11 05:53:23;;;;;;;68.80;13.65;;;0.70;99.90;;;;;;5101881;27;20133;-82
2022/12/11 05:55:48;;;;;;;67.57;13.48;;;0.70;99.90;;;;;;5118687;27;20047;-81
2022/12/11 05:58:14;;;;;;;78.80;15.20;;;0.70;99.90;;;;;;5118462;27;20043;-82
2022/12/11 06:00:43;;;;;;;64.95;14.05;;;0.70;99.90;;;;;;5124443;27;20075;-81
2022/12/11 06:03:08;;;;;;;69.13;14.52;;;0.70;99.90;;;;;;5144088;27;20074;-79
2022/12/11 06:05:39;;;;;;;75.25;14.50;;;0.70;99.90;;;;;;5126412;27;20047;-81
2022/12/11 06:08:05;;;;;;;66.07;14.75;;;0.70;99.90;;;;;;5127536;27;20051;-81
2022/12/11 06:10:31;;;;;;;62.33;13.35;;;0.80;99.90;;;;;;5113133;27;20134;-79
2022/12/11 06:12:56;;;;;;;69.78;13.88;;;0.80;99.90;;;;;;5124940;27;20072;-81
2022/12/11 06:15:22;;;;;;;74.28;15.07;;;0.70;99.90;;;;;;5143094;27;20049;-80
2022/12/11 06:17:48;;;;;;;82.05;16.15;;;0.70;99.90;;;;;;5146506;27;20134;-80
2022/12/11 06:20:14;;;;;;;75.93;14.45;;;0.70;99.90;;;;;;5131147;27;20051;-82
2022/12/11 06:22:40;;;;;;;77.10;15.00;;;0.70;99.90;;;;;;5124625;27;20047;-82
2022/12/11 06:25:06;;;;;;;72.30;15.55;;;0.70;99.90;;;;;;5137246;27;20052;-83
2022/12/11 06:27:31;;;;;;;61.65;12.80;;;0.60;99.90;;;;;;5118966;27;20103;-80
2022/12/11 06:29:57;;;;;;;68.05;14.95;;;0.70;99.90;;;;;;5136493;27;20043;-81
2022/12/11 06:32:23;;;;;;;79.35;15.45;;;0.60;99.90;;;;;;5118674;27;20364;-82
2022/12/11 06:34:49;;;;;;;86.00;16.10;;;0.70;99.90;;;;;;5138252;27;20062;-81
2022/12/11 06:37:14;;;;;;;65.28;12.73;;;0.70;99.90;;;;;;5140434;27;20118;-82
2022/12/11 06:39:40;;;;;;;74.38;14.38;;;0.70;99.90;;;;;;5120834;27;20404;-82
2022/12/11 06:42:06;;;;;;;74.88;15.88;;;0.70;99.90;;;;;;5121694;27;20079;-81
2022/12/11 06:44:31;;;;;;;64.13;13.88;;;0.70;99.90;;;;;;5137052;27;20057;-81
2022/12/11 06:46:57;;;;;;;72.68;15.23;;;0.70;99.90;;;;;;5136175;27;20047;-81
2022/12/11 06:49:23;;;;;;;72.75;14.65;;;0.70;99.90;;;;;;5136166;27;20130;-82
2022/12/11 06:51:48;;;;;;;66.30;14.15;;;0.70;99.90;;;;;;5136113;27;20042;-81
2022/12/11 06:54:14;;;;;;;75.85;15.15;;;0.80;99.90;;;;;;5136993;27;20091;-82
2022/12/11 06:56:40;;;;;;;77.97;16.05;;;0.70;99.90;;;;;;5135709;27;20054;-82
2022/12/11 06:59:06;;;;;;;75.80;15.75;;;0.70;99.90;;;;;;5117418;27;20043;-82
2022/12/11 07:01:31;;;;;;;78.10;16.17;;;0.70;99.90;;;;;;5117748;27;20482;-82
2022/12/11 07:03:59;;;;;;;73.60;14.88;;;0.70;99.90;;;;;;5140034;27;20039;-82
2022/12/11 07:06:26;;;;;;;79.30;16.48;;;0.70;99.90;;;;;;5110481;27;20068;-81
2022/12/11 07:08:52;;;;;;;70.68;16.08;;;0.70;99.90;;;;;;5149296;27;20031;-80
2022/12/11 07:11:19;;;;;;;78.68;15.98;;;0.70;99.90;;;;;;5130668;27;20106;-81
2022/12/11 07:13:46;;;;;;;74.78;14.25;;;0.70;99.90;;;;;;5140108;27;20123;-80
2022/12/11 07:16:14;;;;;;;84.18;17.63;;;0.70;99.90;;;;;;5120570;27;20528;-83
2022/12/11 07:18:41;;;;;;;79.88;15.68;;;0.60;99.90;;;;;;5138752;27;20035;-82
2022/12/11 07:21:10;;;;;;;86.72;16.02;;;0.70;99.90;;;;;;5136635;27;20047;-81
2022/12/11 07:23:36;;;;;;;75.30;15.60;;;0.70;99.90;;;;;;5117730;27;20417;-81
2022/12/11 07:26:08;;;;;;;67.43;14.77;;;0.80;99.90;;;;;;5135951;27;20544;-81
2022/12/11 07:28:34;;;;;;;75.85;15.48;;;0.70;99.90;;;;;;5135794;27;20043;-82
2022/12/11 07:31:08;;;;;;;75.10;15.82;;;0.80;99.90;;;;;;5117816;27;20059;-82
2022/12/11 07:33:34;;;;;;;75.53;16.73;;;0.80;99.90;;;;;;5135186;27;20521;-82
2022/12/11 07:36:06;;;;;;;73.93;15.07;;;0.80;99.90;;;;;;5099904;27;20103;-82
2022/12/11 07:38:32;;;;;;;77.13;17.02;;;0.70;99.90;;;;;;5135836;27;20043;-81
2022/12/11 07:41:08;;;;;;;83.90;17.17;;;0.80;99.90;;;;;;5117115;27;20073;-82
2022/12/11 07:43:35;;;;;;;78.22;15.55;;;0.80;99.90;;;;;;5117175;27;20054;-80
2022/12/11 07:46:01;;;;;;;73.50;15.35;;;0.80;99.90;;;;;;5135865;27;20050;-82
2022/12/11 07:48:27;;;;;;;76.90;15.45;;;0.80;99.90;;;;;;5117806;27;20125;-82
2022/12/11 07:50:53;;;;;;;68.25;14.40;;;0.80;99.90;;;;;;5121187;27;20082;-81
2022/12/11 07:53:18;;;;;;;75.13;15.10;;;0.90;99.90;;;;;;5145210;27;20097;-80
2022/12/11 07:55:44;;;;;;;61.53;14.95;;;0.80;99.90;;;;;;5145451;27;20072;-81
2022/12/11 07:58:10;;;;;;;76.30;15.50;;;0.80;99.90;;;;;;5145565;27;20039;-80
2022/12/11 08:00:35;;;;;;;78.28;15.57;;;0.90;99.90;;;;;;5108071;27;20039;-81
2022/12/11 08:03:01;;;;;;;88.30;17.67;;;0.90;99.90;;;;;;5139759;27;20079;-81
2022/12/11 08:05:27;;;;;;;75.30;16.45;;;0.80;99.90;;;;;;5140195;27;20054;-82
2022/12/11 08:07:53;;;;;;;74.30;15.73;;;0.90;99.90;;;;;;5139015;27;20043;-81
2022/12/11 08:10:18;;;;;;;73.93;15.68;;;0.80;99.90;;;;;;5138471;27;20039;-83
2022/12/11 08:12:44;;;;;;;77.30;16.60;;;0.90;99.90;;;;;;5120635;27;20059;-82
2022/12/11 08:15:10;;;;;;;66.38;15.55;;;0.90;99.90;;;;;;5107609;27;20229;-85
2022/12/11 08:17:36;;;;;;;78.60;17.10;;;0.90;99.90;;;;;;5128059;27;20068;-82
2022/12/11 08:20:02;;;;;;;73.90;16.55;;;0.90;99.90;;;;;;5147975;27;20062;-82
2022/12/11 08:22:28;;;;;;;81.30;15.93;;;0.90;99.90;;;;;;5131265;27;20042;-79
2022/12/11 08:24:53;;;;;;;80.40;17.58;;;0.90;99.90;;;;;;5116136;27;20050;-82
2022/12/11 08:27:19;;;;;;;78.15;18.02;;;0.90;99.90;;;;;;5151312;27;20064;-81
2022/12/11 08:29:46;;;;;;;86.32;17.73;;;0.90;99.90;;;;;;5101130;27;20047;-82
2022/12/11 08:32:12;;;;;;;69.38;15.30;;;0.90;99.90;;;;;;5117952;27;20393;-82
2022/12/11 08:34:39;;;;;;;72.57;15.83;;;0.90;99.90;;;;;;5118044;27;20055;-83
2022/12/11 08:37:05;;;;;;;80.50;16.60;;;0.90;99.90;;;;;;5117690;28;20365;-82
2022/12/11 08:39:30;;;;;;;78.07;15.68;;;0.90;99.90;;;;;;5136022;27;20042;-81
2022/12/11 08:41:56;;;;;;;69.18;15.77;;;0.90;99.90;;;;;;5066996;28;20039;-81
2022/12/11 08:44:23;;;;;;;74.40;15.35;;;0.90;99.90;;;;;;5117196;27;20123;-81
2022/12/11 08:46:49;;;;;;;76.93;15.80;;;0.90;99.90;;;;;;5098929;27;20051;-81
2022/12/11 08:49:15;;;;;;;79.63;16.10;;;0.90;99.90;;;;;;5134987;27;20045;-80
2022/12/11 08:51:41;;;;;;;73.68;15.23;;;1.00;99.90;;;;;;5115806;28;20073;-79
2022/12/11 08:54:08;;;;;;;75.68;15.63;;;1.00;99.90;;;;;;5097889;28;20134;-81
2022/12/11 08:56:34;;;;;;;77.13;15.23;;;1.00;99.90;;;;;;5115675;28;20043;-80
2022/12/11 08:59:00;;;;;;;72.47;16.13;;;1.00;99.90;;;;;;5115309;28;20428;-80
2022/12/11 09:01:27;;;;;;;68.88;14.48;;;1.00;99.90;;;;;;5115488;28;20471;-81
2022/12/11 09:03:55;;;;;;;75.07;14.88;;;1.00;99.90;;;;;;5116571;28;20355;-80
2022/12/11 09:06:24;;;;;;;68.65;15.73;;;1.00;99.90;;;;;;5133731;27;20111;-80
2022/12/11 09:08:50;;;;;;;73.78;15.77;;;1.00;99.90;;;;;;5119451;27;20096;-80
2022/12/11 09:11:22;;;;;;;66.28;14.68;;;1.00;99.90;;;;;;5137809;27;20134;-81
2022/12/11 09:13:48;;;;;;;79.68;16.45;;;1.10;99.90;;;;;;5120620;27;20347;-80
2022/12/11 09:16:16;;;;;;;71.28;16.08;;;1.10;99.90;;;;;;5119249;27;20049;-81
2022/12/11 09:18:45;;;;;;;76.70;16.13;;;1.10;99.90;;;;;;5119223;27;20460;-81
2022/12/11 09:21:13;;;;;;;73.32;16.75;;;1.00;99.90;;;;;;5138035;27;20095;-80
2022/12/11 09:23:40;;;;;;;81.50;16.60;;;1.10;99.90;;;;;;5119006;27;20096;-80
2022/12/11 09:26:09;;;;;;;74.68;16.67;;;1.10;99.90;;;;;;5119495;27;20100;-82
2022/12/11 09:28:35;;;;;;;65.72;15.20;;;1.10;99.90;;;;;;5137615;27;20039;-82
2022/12/11 09:31:10;;;;;;;69.28;15.27;;;1.10;99.90;;;;;;5119636;27;20051;-81
2022/12/11 09:33:36;;;;;;;72.68;15.98;;;1.20;99.90;;;;;;5138589;27;20475;-83
2022/12/11 09:36:03;;;;;;;72.18;15.55;;;1.20;99.90;;;;;;5121521;27;20505;-82
2022/12/11 09:38:29;;;;;;;79.60;14.60;;;1.20;99.90;;;;;;5143919;27;20103;-82
2022/12/11 09:40:55;;;;;;;73.82;14.10;;;1.20;99.90;;;;;;5108092;27;20082;-81
2022/12/11 09:43:33;;;;;;;71.10;15.02;;;1.20;99.90;;;;;;5123280;27;20058;-81
2022/12/11 09:46:03;;;;;;;76.97;15.55;;;1.20;99.90;;;;;;5102153;27;20050;-82
2022/12/11 09:48:32;;;;;;;57.92;14.52;;;1.30;99.90;;;;;;5138233;27;20040;-82
2022/12/11 09:51:01;;;;;;;67.13;14.38;;;1.20;99.90;;;;;;5120079;27;20039;-79
2022/12/11 09:53:34;;;;;;;61.65;13.80;;;1.30;99.90;;;;;;5147558;27;20062;-82
2022/12/11 09:56:20;;;;;;;74.47;16.45;;;1.30;99.90;;;;;;5146486;27;20162;-79
2022/12/11 09:58:55;;;;;;;61.60;13.70;;;1.30;99.90;;;;;;5127790;27;20493;-81
2022/12/11 10:01:31;;;;;;;61.95;15.30;;;1.30;99.90;;;;;;5140775;27;20043;-80
2022/12/11 10:03:57;;;;;;;59.15;13.60;;;1.30;99.90;;;;;;5119788;27;20039;-81
2022/12/11 10:06:28;;;;;;;63.80;14.18;;;1.30;99.90;;;;;;5119133;27;20066;-80
2022/12/11 10:09:32;;;;;;;65.50;14.63;;;1.30;99.90;;;;;;5119780;27;20047;-81
2022/12/11 10:12:21;;;;;;;72.53;14.70;;;1.30;99.90;;;;;;5139326;27;20085;-80
2022/12/11 10:15:03;;;;;;;70.30;15.77;;;1.30;99.90;;;;;;5146357;27;20043;-83
2022/12/11 10:17:32;;;;;;;71.20;15.98;;;1.20;99.90;;;;;;5142707;27;20043;-81
2022/12/11 10:20:13;;;;;;;67.93;15.55;;;1.20;99.90;;;;;;5119653;27;20074;-80
2022/12/11 10:22:39;;;;;;;63.53;14.18;;;1.20;99.90;;;;;;5138617;27;20108;-85
2022/12/11 10:25:12;;;;;;;66.45;15.43;;;1.30;99.90;;;;;;5120109;27;20051;-80
2022/12/11 10:27:40;;;;;;;70.38;15.35;;;1.30;99.90;;;;;;5103270;27;20057;-83
2022/12/11 10:30:12;;;;;;;;;;;1.30;99.90;;;;;;5138667;27;20145;-80
2022/12/11 10:33:13;;;;;;;62.38;15.40;;;1.30;99.90;;;;;;5122897;27;19924;-85
2022/12/11 10:35:42;;;;;;;67.38;15.10;;;1.30;99.90;;;;;;5123960;27;20069;-83
2022/12/11 10:38:20;;;;;;;62.67;15.32;;;1.30;99.90;;;;;;5141273;27;20054;-84
2022/12/11 10:40:50;;;;;;;79.25;16.45;;;1.30;99.90;;;;;;5138201;27;20053;-82
2022/12/11 10:43:16;;;;;;;70.07;15.52;;;1.30;99.90;;;;;;5104913;27;20435;-83
2022/12/11 10:45:54;;;;;;;72.47;17.17;;;1.30;99.90;;;;;;5139498;27;20039;-83
2022/12/11 10:48:20;;;;;;;78.00;17.65;;;1.40;99.90;;;;;;5138650;27;20458;-78
2022/12/11 10:51:03;;;;;;;74.93;18.85;;;1.40;99.90;;;;;;5137540;27;20047;-82
2022/12/11 10:53:30;;;;;;;75.32;18.75;;;1.30;99.90;;;;;;5140261;27;20226;-82
2022/12/11 10:55:59;;;;;;;87.72;20.92;;;1.30;99.90;;;;;;5124691;27;20223;-84
2022/12/11 10:58:32;;;;;;;85.93;21.20;;;1.40;99.90;;;;;;5139000;27;20065;-85
2022/12/11 11:01:09;;;;;;;92.28;24.08;;;1.30;99.90;;;;;;5139875;27;20417;-80
2022/12/11 11:03:51;;;;;;;82.35;20.88;;;1.40;99.90;;;;;;5120380;27;20486;-81
2022/12/11 11:06:19;;;;;;;92.15;20.92;;;1.30;99.90;;;;;;5141297;27;20043;-81
2022/12/11 11:08:55;;;;;;;71.18;19.30;;;1.30;99.90;;;;;;5140288;27;20045;-82
2022/12/11 11:11:28;;;;;;;80.85;18.33;;;1.40;99.90;;;;;;5139915;27;20095;-81
2022/12/11 11:14:14;;;;;;;79.13;18.75;;;1.40;99.90;;;;;;5141419;27;20446;-81
2022/12/11 11:16:43;;;;;;;68.82;17.60;;;1.40;99.90;;;;;;5120097;27;20137;-81
2022/12/11 11:19:27;;;;;;;93.15;22.80;;;1.50;99.90;;;;;;5140115;27;20386;-81
2022/12/11 11:21:57;;;;;;;96.90;22.02;;;1.40;99.90;;;;;;5138724;27;20054;-80
2022/12/11 11:24:32;;;;;;;76.20;19.25;;;1.40;99.90;;;;;;5143364;27;20328;-82
2022/12/11 11:26:58;;;;;;;90.18;23.48;;;1.50;99.90;;;;;;5145548;27;20047;-81
2022/12/11 11:29:34;;;;;;;85.25;22.60;;;1.50;99.90;;;;;;5126706;27;20131;-80
2022/12/11 11:32:26;;;;;;;77.88;19.83;;;1.50;99.90;;;;;;5145305;27;20047;-82
2022/12/11 11:34:52;;;;;;;77.20;18.15;;;1.50;99.90;;;;;;5129320;27;20047;-81
2022/12/11 11:37:39;;;;;;;81.78;18.05;;;1.50;99.90;;;;;;5145280;27;20058;-82
2022/12/11 11:40:18;;;;;;;69.95;18.05;;;1.50;99.90;;;;;;5128305;27;20130;-81
2022/12/11 11:43:09;;;;;;;81.95;17.95;;;1.50;99.90;;;;;;5113615;27;20063;-84
2022/12/11 11:45:53;;;;;;;74.18;17.45;;;1.50;99.90;;;;;;5131796;27;20043;-82
2022/12/11 11:48:25;;;;;;;79.00;17.20;;;1.50;99.90;;;;;;5144340;27;20035;-82
2022/12/11 11:50:52;;;;;;;78.35;17.02;;;1.50;99.90;;;;;;5110161;27;20050;-83
2022/12/11 11:53:26;;;;;;;73.18;16.98;;;1.50;99.90;;;;;;5128368;27;20062;-81
2022/12/11 11:56:04;;;;;;;74.43;17.73;;;1.50;99.90;;;;;;5147587;27;20039;-82
2022/12/11 11:58:42;;;;;;;72.35;17.38;;;1.50;99.90;;;;;;5145391;27;20477;-82
2022/12/11 12:01:14;;;;;;;73.55;17.52;;;1.50;99.90;;;;;;5147413;27;20043;-77
2022/12/11 12:03:40;;;;;;;77.20;18.73;;;1.50;99.90;;;;;;5129085;27;20071;-80
2022/12/11 12:06:34;;;;;;;77.63;17.27;;;1.50;99.90;;;;;;5110617;27;20058;-81
2022/12/11 12:09:23;;;;;;;78.78;18.60;;;1.50;99.90;;;;;;5125603;27;20046;-81
2022/12/11 12:11:59;;;;;;;80.20;18.85;;;1.50;99.90;;;;;;5109520;27;20079;-84
2022/12/11 12:14:42;;;;;;;79.43;18.23;;;1.50;99.90;;;;;;5145946;27;20122;-81
2022/12/11 12:17:08;;;;;;;87.25;20.95;;;1.50;99.90;;;;;;5143824;27;20075;-80
2022/12/11 12:19:53;;;;;;;79.78;19.55;;;1.50;99.90;;;;;;5126075;27;20054;-81
2022/12/11 12:22:56;;;;;;;70.10;17.38;;;1.50;99.90;;;;;;5144012;27;20094;-80
2022/12/11 12:25:33;;;;;;;89.78;18.17;;;1.50;99.90;;;;;;5143322;27;20192;-82
2022/12/11 12:28:18;;;;;;;78.32;16.67;;;1.40;99.90;;;;;;5109711;27;20050;-85
2022/12/11 12:31:20;;;;;;;68.03;17.15;;;1.40;99.90;;;;;;5126993;27;20043;-83
2022/12/11 12:33:58;;;;;;;71.53;17.65;;;1.40;99.90;;;;;;5126717;27;20052;-84
2022/12/11 12:36:49;;;;;;;73.40;16.15;;;1.40;99.90;;;;;;5144544;27;20104;-82
2022/12/11 12:39:35;;;;;;;79.00;18.30;;;1.40;99.90;;;;;;5143744;27;20078;-82
2022/12/11 12:42:10;;;;;;;73.82;17.20;;;1.40;99.90;;;;;;5133093;28;20046;-81
2022/12/11 12:44:59;;;;;;;73.85;17.92;;;1.40;99.90;;;;;;5155847;27;20074;-84
2022/12/11 12:47:29;;;;;;;77.65;18.95;;;1.50;99.90;;;;;;5112342;27;20111;-82
2022/12/11 12:49:58;;;;;;;73.35;18.92;;;1.40;99.90;;;;;;5139334;27;20043;-83
2022/12/11 12:52:34;;;;;;;77.97;18.10;;;1.40;99.90;;;;;;5135431;27;20047;-81
2022/12/11 12:55:14;;;;;;;70.32;18.67;;;1.40;99.90;;;;;;5152409;27;20106;-84
2022/12/11 12:58:21;;;;;;;74.50;18.40;;;1.40;99.90;;;;;;5150245;28;20070;-85
2022/12/11 13:00:47;;;;;;;62.55;16.23;;;1.40;99.90;;;;;;5133736;28;20127;-84
2022/12/11 13:03:21;;;;;;;61.88;16.05;;;1.50;99.90;;;;;;5134219;28;20042;-83
2022/12/11 13:06:08;;;;;;;63.10;15.05;;;1.50;99.90;;;;;;5117772;28;20055;-83